Time;durP1;ratioP1;P1;durP2;ratioP2;P2;SDS_P1;SDS_P2;PMS_P1;PMS_P2;Temp;Humidity;BMP_temperature;BMP_pressure;BME280_temperature;BME280_humidity;BME280_pressure;Samples;Min_cycle;Max_cycle;Signal;HPM_P1;HPM_P2
2021/07/03 00:01:57;;;;;;;539.28;403.20;;;;;;;;;;4932044;29;20032;-73
2021/07/03 00:04:25;;;;;;;539.83;406.63;;;;;;;;;;4949705;28;20027;-73
2021/07/03 00:06:51;;;;;;;532.35;401.77;;;;;;;;;;4950650;28;20066;-73
2021/07/03 00:09:17;;;;;;;526.05;389.92;;;;;;;;;;4928692;28;20027;-73
2021/07/03 00:11:43;;;;;;;530.20;398.95;;;;;;;;;;4935925;29;20725;-74
2021/07/03 00:14:10;;;;;;;546.00;414.65;;;;;;;;;;4933868;28;20133;-73
2021/07/03 00:16:37;;;;;;;543.78;408.35;;;;;;;;;;4932768;29;20030;-73
2021/07/03 00:19:04;;;;;;;534.45;395.02;;;;;;;;;;4929571;29;20035;-72
2021/07/03 00:21:30;;;;;;;537.38;397.27;;;;;;;;;;4928117;29;20127;-73
2021/07/03 00:23:56;;;;;;;538.00;401.15;;;;;;;;;;4941428;29;20118;-73
2021/07/03 00:26:22;;;;;;;533.30;394.70;;;;;;;;;;4942714;28;20505;-73
2021/07/03 00:28:48;;;;;;;533.30;401.45;;;;;;;;;;4929438;29;20031;-73
2021/07/03 00:31:14;;;;;;;532.80;399.83;;;;;;;;;;4920130;29;20417;-73
2021/07/03 00:33:40;;;;;;;530.38;392.67;;;;;;;;;;4924697;29;20130;-73
2021/07/03 00:36:06;;;;;;;531.72;396.48;;;;;;;;;;4941624;28;20034;-73
2021/07/03 00:38:32;;;;;;;526.60;385.15;;;;;;;;;;4943445;28;20538;-74
2021/07/03 00:40:59;;;;;;;533.47;397.40;;;;;;;;;;4931988;29;20075;-73
2021/07/03 00:43:26;;;;;;;537.20;403.00;;;;;;;;;;4931032;29;20024;-73
2021/07/03 00:45:53;;;;;;;527.88;385.88;;;;;;;;;;4931551;29;20387;-73
2021/07/03 00:48:20;;;;;;;527.08;386.27;;;;;;;;;;4949269;28;20026;-73
2021/07/03 00:50:46;;;;;;;531.45;390.77;;;;;;;;;;4928076;29;20496;-72
2021/07/03 00:53:15;;;;;;;535.65;394.50;;;;;;;;;;4929326;29;20035;-73
2021/07/03 00:55:41;;;;;;;533.88;392.98;;;;;;;;;;4944754;28;20149;-73
2021/07/03 00:58:07;;;;;;;532.97;391.40;;;;;;;;;;4945913;28;20123;-73
2021/07/03 01:00:33;;;;;;;534.55;388.10;;;;;;;;;;4931348;29;20123;-73
2021/07/03 01:02:59;;;;;;;536.00;389.38;;;;;;;;;;4924727;29;20068;-73
2021/07/03 01:05:25;;;;;;;538.53;395.63;;;;;;;;;;4930943;28;20031;-73
2021/07/03 01:07:51;;;;;;;567.00;413.30;;;;;;;;;;4929751;29;20118;-73
2021/07/03 01:10:22;;;;;;;534.50;376.75;;;;;;;;;;4931495;29;20035;-73
2021/07/03 01:12:48;;;;;;;532.67;383.38;;;;;;;;;;4945161;28;20243;-73
2021/07/03 01:15:14;;;;;;;530.67;377.63;;;;;;;;;;4929125;29;20114;-73
2021/07/03 01:17:40;;;;;;;533.83;385.30;;;;;;;;;;4931185;29;20498;-73
2021/07/03 01:20:08;;;;;;;541.15;391.15;;;;;;;;;;4945594;28;20035;-73
2021/07/03 01:22:34;;;;;;;527.70;377.63;;;;;;;;;;4944656;29;20031;-72
2021/07/03 01:25:00;;;;;;;534.00;391.20;;;;;;;;;;4947583;28;20641;-72
2021/07/03 01:27:27;;;;;;;532.33;379.17;;;;;;;;;;4947226;28;20116;-72
2021/07/03 01:29:53;;;;;;;529.28;376.15;;;;;;;;;;4938698;28;20031;-72
2021/07/03 01:32:21;;;;;;;530.92;388.17;;;;;;;;;;4931463;28;20063;-73
2021/07/03 01:34:47;;;;;;;529.05;376.38;;;;;;;;;;4944062;28;20027;-73
2021/07/03 01:37:13;;;;;;;526.33;378.75;;;;;;;;;;4948301;28;20042;-72
2021/07/03 01:39:40;;;;;;;530.63;387.20;;;;;;;;;;4946365;28;20032;-73
2021/07/03 01:42:07;;;;;;;529.58;385.08;;;;;;;;;;4931378;28;20028;-72
2021/07/03 01:44:34;;;;;;;532.75;382.55;;;;;;;;;;4931150;28;20039;-73
2021/07/03 01:47:01;;;;;;;532.42;383.45;;;;;;;;;;4945188;28;20434;-73
2021/07/03 01:49:27;;;;;;;533.03;378.65;;;;;;;;;;4931342;29;20049;-72
2021/07/03 01:51:54;;;;;;;533.25;385.60;;;;;;;;;;4930122;29;20071;-73
2021/07/03 01:54:23;;;;;;;534.30;384.55;;;;;;;;;;4917800;29;20031;-73
2021/07/03 01:56:58;;;;;;;535.53;381.20;;;;;;;;;;4927755;29;21458;-72
2021/07/03 01:59:28;;;;;;;538.15;386.70;;;;;;;;;;4931258;29;20094;-72
2021/07/03 02:01:55;;;;;;;539.77;386.23;;;;;;;;;;4926237;29;20118;-73
2021/07/03 02:04:21;;;;;;;536.88;381.45;;;;;;;;;;4916429;29;20031;-73
2021/07/03 02:06:47;;;;;;;534.90;381.77;;;;;;;;;;4932154;29;20727;-72
2021/07/03 02:09:14;;;;;;;533.92;378.27;;;;;;;;;;4913272;29;20028;-73
2021/07/03 02:11:40;;;;;;;528.83;380.58;;;;;;;;;;4918652;29;20044;-73
2021/07/03 02:14:06;;;;;;;529.13;376.55;;;;;;;;;;4917648;29;20027;-74
2021/07/03 02:16:34;;;;;;;527.70;375.23;;;;;;;;;;4932065;29;20031;-73
2021/07/03 02:19:00;;;;;;;527.03;371.83;;;;;;;;;;4932988;29;20031;-73
2021/07/03 02:21:26;;;;;;;529.53;371.38;;;;;;;;;;4933207;29;20090;-73
2021/07/03 02:23:52;;;;;;;524.28;365.70;;;;;;;;;;4912831;29;20024;-72
2021/07/03 02:26:18;;;;;;;526.47;372.85;;;;;;;;;;4914024;29;20035;-73
2021/07/03 02:28:44;;;;;;;527.92;373.63;;;;;;;;;;4916733;29;20031;-72
2021/07/03 02:31:10;;;;;;;525.35;370.77;;;;;;;;;;4932931;29;20357;-72
2021/07/03 02:33:36;;;;;;;530.97;375.67;;;;;;;;;;4932058;29;20075;-73
2021/07/03 02:36:02;;;;;;;532.42;376.13;;;;;;;;;;4929145;29;20036;-72
2021/07/03 02:38:28;;;;;;;531.10;376.20;;;;;;;;;;4931564;29;20768;-72
2021/07/03 02:40:54;;;;;;;534.97;376.30;;;;;;;;;;4911564;29;20039;-73
2021/07/03 02:43:20;;;;;;;533.03;374.73;;;;;;;;;;4917432;29;20051;-72
2021/07/03 02:45:46;;;;;;;527.95;365.52;;;;;;;;;;4932129;29;20039;-72
2021/07/03 02:48:13;;;;;;;532.65;370.05;;;;;;;;;;4912514;29;20435;-73
2021/07/03 02:50:39;;;;;;;535.17;377.45;;;;;;;;;;4915259;29;20052;-73
2021/07/03 02:53:05;;;;;;;532.72;372.60;;;;;;;;;;4912919;29;20043;-72
2021/07/03 02:55:31;;;;;;;526.95;360.42;;;;;;;;;;4911730;29;20682;-73
2021/07/03 02:57:57;;;;;;;533.53;371.30;;;;;;;;;;4932477;29;20031;-73
2021/07/03 03:00:24;;;;;;;533.63;366.85;;;;;;;;;;4917109;29;20035;-73
2021/07/03 03:02:50;;;;;;;531.78;369.73;;;;;;;;;;4913616;29;20035;-73
2021/07/03 03:05:16;;;;;;;532.08;374.25;;;;;;;;;;4930255;29;20049;-73
2021/07/03 03:07:43;;;;;;;531.55;360.83;;;;;;;;;;4927101;29;20699;-72
2021/07/03 03:10:10;;;;;;;529.60;364.60;;;;;;;;;;4924055;29;20040;-72
2021/07/03 03:12:37;;;;;;;529.05;368.05;;;;;;;;;;4929323;29;20035;-73
2021/07/03 03:15:04;;;;;;;533.78;375.83;;;;;;;;;;4932916;29;20594;-72
2021/07/03 03:17:30;;;;;;;524.97;368.67;;;;;;;;;;4930545;29;20039;-73
2021/07/03 03:19:56;;;;;;;520.03;366.40;;;;;;;;;;4929050;29;20566;-72
2021/07/03 03:22:21;;;;;;;526.05;370.50;;;;;;;;;;4927932;29;20034;-72
2021/07/03 03:24:47;;;;;;;532.20;374.13;;;;;;;;;;4931150;29;20515;-72
2021/07/03 03:27:14;;;;;;;525.50;377.60;;;;;;;;;;4914946;29;20356;-71
2021/07/03 03:29:40;;;;;;;522.45;369.05;;;;;;;;;;4911578;29;20034;-72
2021/07/03 03:32:06;;;;;;;519.25;361.73;;;;;;;;;;4912605;29;20114;-71
2021/07/03 03:34:32;;;;;;;520.63;367.98;;;;;;;;;;4928022;29;20032;-72
2021/07/03 03:36:58;;;;;;;524.00;376.50;;;;;;;;;;4931098;29;20043;-72
2021/07/03 03:39:24;;;;;;;519.70;368.10;;;;;;;;;;4911753;29;20963;-73
2021/07/03 03:41:50;;;;;;;518.03;366.63;;;;;;;;;;4930825;29;20062;-72
2021/07/03 03:44:19;;;;;;;518.65;367.77;;;;;;;;;;4924962;29;20035;-72
2021/07/03 03:46:45;;;;;;;525.07;373.97;;;;;;;;;;4929371;29;20028;-71
2021/07/03 03:49:11;;;;;;;521.63;370.05;;;;;;;;;;4914171;29;20039;-72
2021/07/03 03:51:38;;;;;;;518.55;367.85;;;;;;;;;;4943396;28;20059;-71
2021/07/03 03:54:04;;;;;;;519.80;376.13;;;;;;;;;;4950307;28;20033;-71
2021/07/03 03:56:31;;;;;;;518.25;373.23;;;;;;;;;;4948035;28;20082;-72
2021/07/03 03:58:57;;;;;;;519.38;375.40;;;;;;;;;;4946701;29;20558;-71
2021/07/03 04:01:23;;;;;;;515.88;369.60;;;;;;;;;;4934134;29;20047;-72
2021/07/03 04:03:49;;;;;;;519.25;376.63;;;;;;;;;;4933305;29;20681;-72
2021/07/03 04:06:15;;;;;;;520.58;385.80;;;;;;;;;;4933688;29;20460;-71
2021/07/03 04:08:42;;;;;;;516.83;382.58;;;;;;;;;;4932549;29;20027;-73
2021/07/03 04:11:08;;;;;;;520.40;385.63;;;;;;;;;;4933702;29;20086;-72
2021/07/03 04:13:34;;;;;;;521.35;389.30;;;;;;;;;;4948566;28;20035;-72
2021/07/03 04:16:00;;;;;;;515.70;379.92;;;;;;;;;;4948555;28;20166;-72
2021/07/03 04:18:26;;;;;;;516.17;382.25;;;;;;;;;;4935626;29;20062;-73
2021/07/03 04:20:55;;;;;;;514.22;377.38;;;;;;;;;;4927810;29;20078;-72
2021/07/03 04:23:21;;;;;;;519.22;386.33;;;;;;;;;;4947130;28;20027;-72
2021/07/03 04:25:47;;;;;;;518.30;389.83;;;;;;;;;;4942157;28;20483;-72
2021/07/03 04:28:13;;;;;;;520.70;394.08;;;;;;;;;;4944497;28;20038;-72
2021/07/03 04:30:39;;;;;;;522.92;388.63;;;;;;;;;;4945506;28;20106;-72
2021/07/03 04:33:11;;;;;;;521.15;396.08;;;;;;;;;;4948790;29;20050;-71
2021/07/03 04:35:37;;;;;;;519.92;391.42;;;;;;;;;;4942163;29;20471;-73
2021/07/03 04:38:03;;;;;;;522.08;400.10;;;;;;;;;;4930130;29;20028;-73
2021/07/03 04:40:29;;;;;;;517.97;391.92;;;;;;;;;;4944460;28;20032;-72
2021/07/03 04:42:55;;;;;;;519.22;387.95;;;;;;;;;;4945568;29;20038;-73
2021/07/03 04:45:22;;;;;;;522.83;397.55;;;;;;;;;;4945642;29;20028;-72
2021/07/03 04:47:48;;;;;;;521.22;393.45;;;;;;;;;;4948505;28;20035;-72
2021/07/03 04:50:14;;;;;;;520.88;397.00;;;;;;;;;;4949193;28;20050;-72
2021/07/03 04:52:40;;;;;;;521.97;398.40;;;;;;;;;;4930918;29;20382;-71
2021/07/03 04:55:07;;;;;;;524.30;403.30;;;;;;;;;;4933130;29;20027;-72
2021/07/03 04:57:33;;;;;;;521.30;397.63;;;;;;;;;;4932500;28;20031;-72
2021/07/03 04:59:59;;;;;;;523.20;399.52;;;;;;;;;;4944640;29;20042;-73
2021/07/03 05:02:25;;;;;;;520.67;396.73;;;;;;;;;;4929592;29;20039;-71
2021/07/03 05:04:51;;;;;;;524.70;404.38;;;;;;;;;;4945147;28;20027;-72
2021/07/03 05:07:17;;;;;;;525.25;400.15;;;;;;;;;;4932055;28;20100;-72
2021/07/03 05:09:43;;;;;;;524.13;401.92;;;;;;;;;;4930699;29;20027;-72
2021/07/03 05:12:09;;;;;;;528.33;406.33;;;;;;;;;;4947574;28;20070;-72
2021/07/03 05:14:35;;;;;;;526.97;411.60;;;;;;;;;;4949434;28;20039;-71
2021/07/03 05:17:03;;;;;;;526.13;409.63;;;;;;;;;;4948376;28;20038;-73
2021/07/03 05:19:29;;;;;;;527.65;412.92;;;;;;;;;;4929026;29;20066;-73
2021/07/03 05:21:55;;;;;;;528.58;413.95;;;;;;;;;;4932160;29;20027;-72
2021/07/03 05:24:21;;;;;;;529.92;416.27;;;;;;;;;;4933065;29;20026;-72
2021/07/03 05:26:47;;;;;;;526.08;410.45;;;;;;;;;;4945056;29;20019;-72
2021/07/03 05:29:19;;;;;;;529.22;418.15;;;;;;;;;;4931839;28;20464;-73
2021/07/03 05:31:45;;;;;;;529.15;419.95;;;;;;;;;;4950176;28;20062;-71
2021/07/03 05:34:11;;;;;;;530.72;420.88;;;;;;;;;;4931832;29;20039;-72
2021/07/03 05:36:37;;;;;;;528.35;420.20;;;;;;;;;;4933555;28;20066;-73
2021/07/03 05:39:04;;;;;;;531.60;425.65;;;;;;;;;;4933608;29;20144;-72
2021/07/03 05:41:32;;;;;;;531.55;428.55;;;;;;;;;;4932155;29;20042;-73
2021/07/03 05:43:58;;;;;;;531.60;427.52;;;;;;;;;;4948245;28;20039;-73
2021/07/03 05:46:24;;;;;;;531.22;423.02;;;;;;;;;;4928709;29;20040;-73
2021/07/03 05:48:50;;;;;;;530.92;425.50;;;;;;;;;;4950370;28;20027;-73
2021/07/03 05:51:16;;;;;;;534.22;437.08;;;;;;;;;;4934142;28;20074;-73
2021/07/03 05:53:42;;;;;;;533.88;435.15;;;;;;;;;;4932843;29;20032;-74
2021/07/03 05:56:08;;;;;;;531.70;429.73;;;;;;;;;;4944817;28;20106;-74
2021/07/03 05:58:34;;;;;;;535.97;434.45;;;;;;;;;;4933017;29;20057;-74
2021/07/03 06:01:06;;;;;;;533.50;431.15;;;;;;;;;;4946907;28;20106;-74
2021/07/03 06:03:32;;;;;;;538.65;442.90;;;;;;;;;;4945308;29;20523;-74
2021/07/03 06:05:58;;;;;;;537.40;438.98;;;;;;;;;;4937894;29;20040;-74
2021/07/03 06:08:24;;;;;;;538.47;439.15;;;;;;;;;;4945161;28;20031;-74
2021/07/03 06:10:50;;;;;;;538.85;437.33;;;;;;;;;;4947307;28;20082;-74
2021/07/03 06:13:23;;;;;;;539.72;443.92;;;;;;;;;;4948831;28;20023;-75
2021/07/03 06:15:49;;;;;;;536.65;436.63;;;;;;;;;;4947314;28;20051;-74
2021/07/03 06:18:15;;;;;;;542.67;447.00;;;;;;;;;;4943601;28;20039;-74
2021/07/03 06:20:41;;;;;;;541.75;444.40;;;;;;;;;;4926186;29;20028;-75
2021/07/03 06:23:07;;;;;;;538.40;436.80;;;;;;;;;;4946773;28;20054;-74
2021/07/03 06:25:37;;;;;;;540.80;442.45;;;;;;;;;;4941244;28;20024;-74
2021/07/03 06:28:03;;;;;;;544.23;453.07;;;;;;;;;;4938687;29;20805;-74
2021/07/03 06:30:29;;;;;;;550.25;455.38;;;;;;;;;;4953008;28;20059;-73
2021/07/03 06:32:55;;;;;;;550.60;459.40;;;;;;;;;;4930192;28;20114;-75
2021/07/03 06:35:21;;;;;;;548.75;463.75;;;;;;;;;;4932208;28;20479;-74
2021/07/03 06:37:50;;;;;;;549.42;457.35;;;;;;;;;;4944534;28;20178;-73
2021/07/03 06:40:16;;;;;;;549.05;460.70;;;;;;;;;;4936144;29;20041;-73
2021/07/03 06:42:42;;;;;;;555.08;463.05;;;;;;;;;;4951302;29;20126;-72
2021/07/03 06:45:08;;;;;;;550.60;464.67;;;;;;;;;;4952026;29;20046;-73
2021/07/03 06:47:34;;;;;;;549.72;460.88;;;;;;;;;;4949318;29;20027;-72
2021/07/03 06:50:01;;;;;;;547.33;457.65;;;;;;;;;;4939157;29;21049;-75
2021/07/03 06:52:27;;;;;;;554.90;468.92;;;;;;;;;;4938955;28;20035;-74
2021/07/03 06:54:53;;;;;;;552.20;466.35;;;;;;;;;;4927437;29;20036;-74
2021/07/03 06:57:19;;;;;;;551.33;464.80;;;;;;;;;;4938154;29;20077;-72
2021/07/03 06:59:46;;;;;;;553.33;471.15;;;;;;;;;;4958041;28;20035;-74
2021/07/03 07:02:12;;;;;;;552.10;468.17;;;;;;;;;;4929180;29;20028;-74
2021/07/03 07:04:38;;;;;;;549.53;460.08;;;;;;;;;;4936091;29;20023;-74
2021/07/03 07:07:04;;;;;;;551.40;466.08;;;;;;;;;;4951043;28;20019;-73
2021/07/03 07:09:30;;;;;;;549.45;461.23;;;;;;;;;;4953440;28;20596;-73
2021/07/03 07:12:00;;;;;;;555.75;466.67;;;;;;;;;;4938459;29;20062;-74
2021/07/03 07:14:26;;;;;;;552.33;466.40;;;;;;;;;;4934755;29;20434;-73
2021/07/03 07:16:52;;;;;;;551.80;463.92;;;;;;;;;;4951394;28;20027;-75
2021/07/03 07:19:18;;;;;;;556.92;471.77;;;;;;;;;;4956298;28;20592;-72
2021/07/03 07:21:44;;;;;;;567.88;488.98;;;;;;;;;;4949077;28;20034;-72
2021/07/03 07:24:16;;;;;;;550.45;470.55;;;;;;;;;;4936368;29;20113;-72
2021/07/03 07:26:43;;;;;;;549.83;474.60;;;;;;;;;;4931173;28;20130;-73
2021/07/03 07:29:09;;;;;;;568.42;487.95;;;;;;;;;;4939402;29;20037;-72
2021/07/03 07:31:35;;;;;;;566.65;486.15;;;;;;;;;;4953479;28;20027;-72
2021/07/03 07:34:01;;;;;;;551.63;479.00;;;;;;;;;;4933591;29;20043;-73
2021/07/03 07:36:27;;;;;;;547.10;479.42;;;;;;;;;;4948912;28;20031;-73
2021/07/03 07:38:53;;;;;;;563.80;499.35;;;;;;;;;;4933634;29;20897;-72
2021/07/03 07:41:18;;;;;;;566.15;503.10;;;;;;;;;;4936035;29;20126;-73
2021/07/03 07:43:45;;;;;;;563.33;497.50;;;;;;;;;;4934856;29;20027;-72
2021/07/03 07:46:12;;;;;;;561.78;499.70;;;;;;;;;;4945113;29;20020;-72
2021/07/03 07:48:38;;;;;;;558.42;496.70;;;;;;;;;;4943672;28;20035;-75
2021/07/03 07:51:04;;;;;;;559.95;498.13;;;;;;;;;;4938411;29;20039;-76
2021/07/03 07:53:31;;;;;;;578.50;515.22;;;;;;;;;;4936332;29;21043;-75
2021/07/03 07:55:57;;;;;;;596.40;533.08;;;;;;;;;;4950021;28;20028;-76
2021/07/03 07:58:25;;;;;;;606.67;542.20;;;;;;;;;;4938613;28;20542;-75
2021/07/03 08:00:52;;;;;;;620.40;555.90;;;;;;;;;;4934476;29;20023;-75
2021/07/03 08:03:18;;;;;;;619.80;556.00;;;;;;;;;;4936425;29;20127;-76
2021/07/03 08:05:44;;;;;;;630.55;565.60;;;;;;;;;;4936389;29;20506;-75
2021/07/03 08:08:11;;;;;;;650.80;585.25;;;;;;;;;;4937385;29;20140;-75
2021/07/03 08:10:44;;;;;;;653.47;587.80;;;;;;;;;;4930729;29;20027;-73
2021/07/03 08:13:10;;;;;;;655.25;590.25;;;;;;;;;;4948385;28;20027;-75
2021/07/03 08:15:36;;;;;;;682.85;616.03;;;;;;;;;;4938321;29;20035;-74
2021/07/03 08:18:03;;;;;;;688.95;622.13;;;;;;;;;;4934065;29;20069;-76
2021/07/03 08:20:30;;;;;;;647.15;584.55;;;;;;;;;;4956216;28;20031;-75
2021/07/03 08:22:57;;;;;;;643.85;581.42;;;;;;;;;;4939290;29;20568;-77
2021/07/03 08:25:24;;;;;;;654.55;591.35;;;;;;;;;;4926898;29;20945;-77
2021/07/03 08:27:51;;;;;;;667.15;603.50;;;;;;;;;;4933250;29;20559;-79
2021/07/03 08:30:18;;;;;;;667.00;602.92;;;;;;;;;;4940785;29;20075;-80
2021/07/03 08:32:44;;;;;;;672.90;609.15;;;;;;;;;;4934399;29;20135;-78
2021/07/03 08:35:34;;;;;;;675.25;611.58;;;;;;;;;;4935766;29;20028;-77
2021/07/03 08:38:00;;;;;;;684.72;620.42;;;;;;;;;;4938078;29;20027;-79
2021/07/03 08:40:31;;;;;;;696.53;631.63;;;;;;;;;;4942394;29;20031;-79
2021/07/03 08:42:58;;;;;;;690.90;625.95;;;;;;;;;;4931972;29;20546;-77
2021/07/03 08:45:24;;;;;;;707.70;642.03;;;;;;;;;;4934827;29;20490;-79
2021/07/03 08:47:55;;;;;;;704.55;637.92;;;;;;;;;;4939784;29;23522;-79
2021/07/03 08:50:22;;;;;;;750.70;682.00;;;;;;;;;;4935181;28;20069;-78
2021/07/03 08:52:48;;;;;;;711.58;645.22;;;;;;;;;;4937061;29;20027;-76
2021/07/03 08:55:21;;;;;;;706.67;641.28;;;;;;;;;;4948462;29;20039;-79
2021/07/03 08:58:19;;;;;;;718.15;651.67;;;;;;;;;;4934309;29;20057;-77
2021/07/03 09:00:46;;;;;;;690.80;626.22;;;;;;;;;;4922421;29;20039;-77
2021/07/03 09:03:13;;;;;;;719.88;653.28;;;;;;;;;;4934832;29;20036;-76
2021/07/03 09:05:40;;;;;;;718.17;652.50;;;;;;;;;;4942113;29;20039;-79
2021/07/03 09:08:25;;;;;;;742.53;675.03;;;;;;;;;;4940811;29;20109;-79
2021/07/03 09:11:10;;;;;;;728.42;661.65;;;;;;;;;;4941066;29;20039;-77
2021/07/03 09:13:39;;;;;;;756.10;687.42;;;;;;;;;;4940261;29;20035;-76
2021/07/03 09:16:05;;;;;;;766.22;696.83;;;;;;;;;;4935765;29;20031;-76
2021/07/03 09:21:36;;;;;;;796.30;725.72;;;;;;;;;;4951801;29;20058;-79
2021/07/03 09:24:12;;;;;;;819.53;747.78;;;;;;;;;;4942108;29;20031;-77
2021/07/03 09:26:38;;;;;;;829.47;756.95;;;;;;;;;;4937315;29;20091;-81
2021/07/03 09:29:10;;;;;;;880.92;805.45;;;;;;;;;;4932517;29;20024;-78
2021/07/03 09:31:58;;;;;;;729.47;664.97;;;;;;;;;;4943911;29;20044;-79
2021/07/03 09:34:25;;;;;;;710.83;648.58;;;;;;;;;;4952053;28;20549;-77
2021/07/03 09:36:51;;;;;;;703.95;642.55;;;;;;;;;;4939630;29;20126;-78
2021/07/03 09:39:22;;;;;;;732.50;670.20;;;;;;;;;;4946050;28;20146;-80
2021/07/03 09:41:48;;;;;;;720.20;658.45;;;;;;;;;;4947153;28;20035;-80
2021/07/03 09:44:15;;;;;;;711.92;651.08;;;;;;;;;;4934103;29;20119;-79
2021/07/03 09:46:51;;;;;;;725.70;664.42;;;;;;;;;;4944489;29;20027;-78
2021/07/03 09:49:18;;;;;;;734.05;672.47;;;;;;;;;;4947935;29;20078;-81
2021/07/03 09:51:46;;;;;;;749.90;687.95;;;;;;;;;;4933713;29;20070;-78
2021/07/03 09:56:59;;;;;;;760.72;698.65;;;;;;;;;;4948027;29;20054;-83
2021/07/03 09:59:30;;;;;;;759.05;696.97;;;;;;;;;;4934439;29;20020;-81
2021/07/03 10:01:55;;;;;;;768.30;705.95;;;;;;;;;;4950405;29;20046;-81
2021/07/03 10:04:22;;;;;;;777.25;714.50;;;;;;;;;;4955732;28;20035;-78
2021/07/03 10:06:57;;;;;;;761.80;699.53;;;;;;;;;;4940416;29;20038;-78
2021/07/03 10:09:33;;;;;;;746.60;684.90;;;;;;;;;;4951030;28;20046;-79
2021/07/03 10:12:05;;;;;;;756.88;693.90;;;;;;;;;;4938785;29;20038;-79
2021/07/03 10:14:47;;;;;;;760.28;697.08;;;;;;;;;;4938938;29;20031;-78
2021/07/03 10:17:23;;;;;;;760.67;697.03;;;;;;;;;;4955541;29;20043;-80
2021/07/03 10:19:49;;;;;;;782.88;718.70;;;;;;;;;;4953173;29;20483;-79
2021/07/03 10:22:16;;;;;;;780.03;716.67;;;;;;;;;;4941384;29;20035;-79
2021/07/03 10:25:04;;;;;;;769.88;707.22;;;;;;;;;;4943291;29;20031;-84
2021/07/03 10:27:31;;;;;;;765.90;702.78;;;;;;;;;;4937158;29;20404;-85
2021/07/03 10:29:58;;;;;;;770.10;706.70;;;;;;;;;;4934862;28;20067;-80
2021/07/03 10:32:27;;;;;;;800.00;735.13;;;;;;;;;;4954359;29;20055;-81
2021/07/03 10:34:54;;;;;;;848.38;780.75;;;;;;;;;;4957021;29;20023;-80
2021/07/03 10:37:44;;;;;;;829.80;764.58;;;;;;;;;;4957867;28;20023;-81
2021/07/03 10:40:16;;;;;;;824.60;760.78;;;;;;;;;;4950032;29;20148;-80
2021/07/03 10:42:42;;;;;;;842.17;778.10;;;;;;;;;;4946028;28;20031;-83
2021/07/03 10:45:10;;;;;;;840.70;777.08;;;;;;;;;;4938231;29;20114;-81
2021/07/03 10:47:36;;;;;;;875.63;809.95;;;;;;;;;;4944194;29;20031;-81
2021/07/03 10:50:06;;;;;;;895.30;828.25;;;;;;;;;;4953047;28;20052;-81
2021/07/03 10:52:39;;;;;;;778.42;718.17;;;;;;;;;;4942476;28;20023;-81
2021/07/03 10:55:05;;;;;;;774.40;714.03;;;;;;;;;;4949541;28;20066;-84
2021/07/03 10:57:39;;;;;;;762.55;701.88;;;;;;;;;;4963034;28;20056;-82
2021/07/03 11:00:24;;;;;;;747.42;686.97;;;;;;;;;;4964652;28;20031;-83
2021/07/03 11:02:51;;;;;;;732.83;672.45;;;;;;;;;;4938875;29;20040;-85
2021/07/03 11:05:17;;;;;;;719.65;659.28;;;;;;;;;;4933808;29;20078;-83
2021/07/03 11:07:44;;;;;;;728.90;667.45;;;;;;;;;;4938958;29;20024;-80
2021/07/03 11:10:10;;;;;;;823.42;755.83;;;;;;;;;;4954141;29;20051;-83
2021/07/03 11:15:58;;;;;;;785.72;720.03;;;;;;;;;;4951245;29;20529;-82
2021/07/03 11:18:24;;;;;;;776.00;710.42;;;;;;;;;;4949226;28;20031;-80
2021/07/03 11:20:50;;;;;;;743.63;679.78;;;;;;;;;;4952663;29;20367;-79
2021/07/03 11:23:19;;;;;;;749.53;685.05;;;;;;;;;;4957461;28;20039;-81
2021/07/03 11:25:46;;;;;;;771.50;705.30;;;;;;;;;;4954714;28;20023;-84
2021/07/03 11:28:25;;;;;;;860.15;788.65;;;;;;;;;;4941655;29;20475;-81
2021/07/03 11:30:58;;;;;;;851.20;779.97;;;;;;;;;;4948001;29;20031;-85
2021/07/03 11:33:28;;;;;;;987.70;907.35;;;;;;;;;;4941278;29;20059;-85
2021/07/03 11:35:54;;;;;;;960.03;881.67;;;;;;;;;;4933875;29;20795;-81
2021/07/03 11:38:21;;;;;;;1055.88;970.58;;;;;;;;;;4934751;29;20467;-89
2021/07/03 11:40:52;;;;;;;1063.70;977.95;;;;;;;;;;4935932;29;20039;-82
2021/07/03 11:43:18;;;;;;;1021.20;939.03;;;;;;;;;;4943243;29;20035;-82
2021/07/03 11:45:47;;;;;;;954.30;877.78;;;;;;;;;;4948545;29;20023;-80
2021/07/03 11:48:14;;;;;;;1015.15;934.10;;;;;;;;;;4944180;29;20026;-85
2021/07/03 11:51:00;;;;;;;1038.53;955.50;;;;;;;;;;4935511;29;20611;-81
2021/07/03 11:53:28;;;;;;;1127.97;999.90;;;;;;;;;;4948794;29;20074;-82
2021/07/03 11:55:55;;;;;;;717.75;655.95;;;;;;;;;;4943617;28;21890;-81
2021/07/03 11:58:23;;;;;;;718.28;656.58;;;;;;;;;;4935237;29;20023;-80
2021/07/03 12:00:51;;;;;;;729.88;667.55;;;;;;;;;;4941655;29;20032;-80
2021/07/03 12:03:18;;;;;;;720.97;658.92;;;;;;;;;;4955164;28;20031;-80
2021/07/03 12:05:46;;;;;;;717.13;655.25;;;;;;;;;;4938141;29;20033;-81
2021/07/03 12:08:13;;;;;;;728.63;666.13;;;;;;;;;;4936434;29;20079;-81
2021/07/03 12:10:58;;;;;;;725.35;663.03;;;;;;;;;;4933695;29;20047;-81
2021/07/03 12:13:25;;;;;;;720.17;657.95;;;;;;;;;;4933665;29;20036;-82
2021/07/03 12:15:54;;;;;;;728.42;666.03;;;;;;;;;;4926536;29;20063;-81
2021/07/03 12:18:49;;;;;;;727.03;664.80;;;;;;;;;;4937698;28;20360;-82
2021/07/03 12:21:26;;;;;;;716.65;654.78;;;;;;;;;;4957720;28;20363;-82
2021/07/03 12:23:57;;;;;;;716.13;654.05;;;;;;;;;;4953178;28;20050;-83
2021/07/03 12:26:24;;;;;;;712.03;649.88;;;;;;;;;;4935728;29;20030;-84
2021/07/03 12:28:53;;;;;;;704.55;642.55;;;;;;;;;;4939944;29;20059;-82
2021/07/03 12:31:24;;;;;;;724.40;661.97;;;;;;;;;;4952235;28;20035;-81
2021/07/03 12:33:59;;;;;;;731.33;668.95;;;;;;;;;;4947080;28;20283;-82
2021/07/03 12:36:25;;;;;;;739.42;676.70;;;;;;;;;;4937260;29;20030;-83
2021/07/03 12:39:01;;;;;;;754.58;691.67;;;;;;;;;;4939729;29;20118;-82
2021/07/03 12:41:41;;;;;;;758.70;695.50;;;;;;;;;;4957893;28;20074;-84
2021/07/03 12:44:07;;;;;;;736.83;674.45;;;;;;;;;;4952197;29;20023;-81
2021/07/03 12:46:34;;;;;;;757.28;693.72;;;;;;;;;;4937088;29;20762;-83
2021/07/03 12:49:01;;;;;;;748.15;684.60;;;;;;;;;;4925179;29;20111;-86
2021/07/03 12:51:32;;;;;;;739.63;676.53;;;;;;;;;;4943403;29;20085;-86
2021/07/03 12:54:03;;;;;;;776.60;710.97;;;;;;;;;;4928748;29;20081;-88
2021/07/03 12:56:29;;;;;;;772.35;706.67;;;;;;;;;;4936962;29;20046;-88
2021/07/03 12:58:58;;;;;;;754.72;690.22;;;;;;;;;;4951372;28;20027;-85
2021/07/03 13:01:28;;;;;;;763.63;698.25;;;;;;;;;;4947849;29;20027;-86
2021/07/03 13:04:37;;;;;;;751.33;686.55;;;;;;;;;;4909507;28;20043;-86
2021/07/03 13:07:06;;;;;;;759.03;693.58;;;;;;;;;;4937602;29;20023;-85
2021/07/03 13:09:32;;;;;;;765.45;699.33;;;;;;;;;;4934201;29;20031;-86
2021/07/03 13:11:59;;;;;;;771.60;704.55;;;;;;;;;;4928001;29;20479;-90
2021/07/03 13:14:24;;;;;;;767.05;677.42;;;;;;;;;;4938146;29;20082;-88
2021/07/03 13:17:15;;;;;;;699.00;636.42;;;;;;;;;;4937950;29;20023;-83
2021/07/03 13:19:41;;;;;;;680.25;618.45;;;;;;;;;;4937749;29;20032;-85
2021/07/03 13:22:07;;;;;;;682.08;620.20;;;;;;;;;;4934913;29;20051;-85
2021/07/03 13:24:33;;;;;;;669.25;607.88;;;;;;;;;;4934667;29;20118;-84
2021/07/03 13:26:59;;;;;;;663.25;602.08;;;;;;;;;;4954259;29;20101;-88
2021/07/03 13:29:40;;;;;;;662.42;601.25;;;;;;;;;;4935628;29;20016;-85
2021/07/03 13:32:07;;;;;;;660.78;599.50;;;;;;;;;;4938312;29;20027;-92
2021/07/03 13:34:34;;;;;;;635.83;575.60;;;;;;;;;;4937221;29;20553;-92
2021/07/03 13:37:00;;;;;;;642.85;582.22;;;;;;;;;;4937787;29;20126;-88
2021/07/03 13:39:26;;;;;;;653.75;592.00;;;;;;;;;;4936494;29;20114;-83
2021/07/03 13:42:01;;;;;;;649.53;588.47;;;;;;;;;;4937162;29;20312;-83
2021/07/03 13:44:27;;;;;;;645.47;584.47;;;;;;;;;;4937828;29;20385;-82
2021/07/03 13:46:53;;;;;;;638.83;578.25;;;;;;;;;;4927356;29;20026;-82
2021/07/03 13:49:19;;;;;;;643.88;582.95;;;;;;;;;;4939772;29;20080;-81
2021/07/03 13:51:45;;;;;;;631.28;570.90;;;;;;;;;;4943939;29;20047;-83
2021/07/03 13:54:16;;;;;;;638.40;577.92;;;;;;;;;;4940752;29;20170;-82
2021/07/03 13:56:43;;;;;;;633.33;573.08;;;;;;;;;;4940712;29;20478;-82
2021/07/03 13:59:09;;;;;;;646.60;585.40;;;;;;;;;;4937871;29;20038;-83
2021/07/03 14:01:35;;;;;;;643.88;582.83;;;;;;;;;;4940292;29;20421;-81
2021/07/03 14:04:03;;;;;;;643.35;582.40;;;;;;;;;;4940031;29;20028;-84
2021/07/03 14:06:32;;;;;;;642.90;581.95;;;;;;;;;;4943763;29;20026;-84